Time;durP1;ratioP1;P1;durP2;ratioP2;P2;SDS_P1;SDS_P2;PMS_P1;PMS_P2;Temp;Humidity;BMP_temperature;BMP_pressure;BME280_temperature;BME280_humidity;BME280_pressure;Samples;Min_cycle;Max_cycle;Signal;HPM_P1;HPM_P2
2022/04/05 00:00:05;;;;;;;8.73;3.95;;;;;;;6.41;100.00;100293.31;1048357;28;20444;-78
2022/04/05 00:00:36;;;;;;;5.28;4.15;;;;;;;6.52;100.00;100295.34;1043467;28;20311;-78
2022/04/05 00:01:08;;;;;;;8.68;3.95;;;;;;;6.47;100.00;100298.63;1047760;28;20301;-79
2022/04/05 00:01:40;;;;;;;5.32;4.07;;;;;;;6.57;100.00;100302.69;1047918;28;20737;-77
2022/04/05 00:02:12;;;;;;;6.13;3.65;;;;;;;6.46;100.00;100302.28;1043822;28;20631;-78
2022/04/05 00:02:44;;;;;;;7.75;4.13;;;;;;;6.49;100.00;100301.88;1044321;28;20365;-78
2022/04/05 00:03:16;;;;;;;8.60;3.97;;;;;;;6.47;100.00;100297.78;1047317;28;20286;-79
2022/04/05 00:03:47;;;;;;;5.70;3.28;;;;;;;6.39;100.00;100306.75;1039892;28;20349;-78
2022/04/05 00:04:19;;;;;;;6.18;3.88;;;;;;;6.45;100.00;100302.47;1040310;28;20292;-79
2022/04/05 00:04:51;;;;;;;7.15;4.00;;;;;;;6.40;100.00;100308.38;1043650;28;20307;-78
2022/04/05 00:05:22;;;;;;;7.30;4.13;;;;;;;6.39;100.00;100304.09;1044017;28;20310;-78
2022/04/05 00:05:54;;;;;;;7.32;3.60;;;;;;;6.41;100.00;100302.06;1043627;28;20299;-78
2022/04/05 00:06:25;;;;;;;7.35;4.15;;;;;;;6.42;100.00;100302.88;1043713;28;20291;-78
2022/04/05 00:06:57;;;;;;;8.48;3.90;;;;;;;6.40;100.00;100305.72;1043985;28;20291;-78
2022/04/05 00:07:28;;;;;;;5.82;3.95;;;;;;;6.41;100.00;100303.91;1041389;28;20299;-79
2022/04/05 00:08:00;;;;;;;5.47;4.03;;;;;;;6.42;100.00;100302.88;1043695;28;20377;-78
2022/04/05 00:08:31;;;;;;;4.50;3.45;;;;;;;6.41;100.00;100306.56;1043835;28;20366;-78
2022/04/05 00:09:03;;;;;;;9.05;3.95;;;;;;;6.46;100.00;100310.22;1043977;28;20303;-78
2022/04/05 00:09:35;;;;;;;6.97;3.45;;;;;;;6.39;100.00;100304.09;1044179;28;20295;-78
2022/04/05 00:10:07;;;;;;;7.78;3.85;;;;;;;6.38;100.00;100310.41;1044010;28;20674;-78
2022/04/05 00:10:39;;;;;;;4.38;3.22;;;;;;;6.37;100.00;100303.50;1043833;28;20295;-78
2022/04/05 00:11:10;;;;;;;11.45;3.85;;;;;;;6.32;100.00;100311.22;1043863;28;20299;-78
2022/04/05 00:11:42;;;;;;;6.53;3.28;;;;;;;6.32;100.00;100313.06;1043561;28;20314;-78
2022/04/05 00:12:13;;;;;;;4.93;3.15;;;;;;;6.32;100.00;100308.59;1044001;28;20283;-78
2022/04/05 00:12:45;;;;;;;3.88;3.42;;;;;;;6.33;100.00;100312.84;1035249;28;20800;-78
2022/04/05 00:13:17;;;;;;;3.92;2.83;;;;;;;6.29;100.00;100316.09;1035978;28;20443;-78
2022/04/05 00:13:49;;;;;;;4.72;3.05;;;;;;;6.34;100.00;100314.47;1039830;28;20299;-78
2022/04/05 00:14:21;;;;;;;4.25;2.85;;;;;;;6.28;100.00;100325.84;1039413;28;20302;-78
2022/04/05 00:14:53;;;;;;;4.93;3.53;;;;;;;6.24;100.00;100316.69;1039660;28;20287;-78
2022/04/05 00:15:24;;;;;;;4.18;2.63;;;;;;;6.25;100.00;100320.97;1035704;28;20296;-77
2022/04/05 00:15:56;;;;;;;5.82;2.97;;;;;;;6.26;100.00;100314.66;1035647;28;20370;-78
2022/04/05 00:16:27;;;;;;;4.75;2.92;;;;;;;6.31;100.00;100314.06;1036140;28;20698;-78
2022/04/05 00:16:59;;;;;;;4.45;2.90;;;;;;;6.28;100.00;100315.25;1035945;28;20316;-77
2022/04/05 00:17:32;;;;;;;4.85;3.20;;;;;;;6.26;100.00;100311.19;1043863;28;20302;-78
2022/04/05 00:18:04;;;;;;;5.43;3.15;;;;;;;6.27;100.00;100321.56;1043854;28;20306;-77
2022/04/05 00:18:37;;;;;;;3.30;3.00;;;;;;;6.29;100.00;100308.97;1042968;28;20300;-77
2022/04/05 00:19:08;;;;;;;4.63;3.13;;;;;;;6.23;100.00;100315.06;1044241;28;20298;-78
2022/04/05 00:19:40;;;;;;;9.02;3.22;;;;;;;6.21;100.00;100317.09;1037464;28;20300;-78
2022/04/05 00:20:12;;;;;;;4.05;2.78;;;;;;;6.26;100.00;100316.47;1039677;28;20374;-77
2022/04/05 00:20:43;;;;;;;4.88;2.80;;;;;;;6.24;100.00;100316.69;1039881;28;20386;-78
2022/04/05 00:21:15;;;;;;;4.82;2.92;;;;;;;6.23;100.00;100314.25;1039520;28;20299;-78
2022/04/05 00:21:48;;;;;;;4.28;2.95;;;;;;;6.26;100.00;100313.84;1035870;28;20300;-78
2022/04/05 00:22:19;;;;;;;4.75;3.45;;;;;;;6.31;100.00;100314.88;1039558;28;20765;-78
2022/04/05 00:22:51;;;;;;;9.43;2.80;;;;;;;6.29;100.00;100316.91;1039964;28;20371;-78
2022/04/05 00:23:23;;;;;;;6.05;3.47;;;;;;;6.28;100.00;100320.56;1036186;28;20323;-78
2022/04/05 00:23:55;;;;;;;6.30;3.78;;;;;;;6.22;100.00;100326.66;1039658;28;20314;-78
2022/04/05 00:24:27;;;;;;;4.25;2.80;;;;;;;6.22;100.00;100324.00;1039191;28;20645;-78
2022/04/05 00:24:58;;;;;;;5.63;3.38;;;;;;;6.19;100.00;100319.94;1035500;28;20694;-78
2022/04/05 00:25:30;;;;;;;4.55;3.17;;;;;;;6.28;100.00;100325.84;1038825;28;20308;-78
2022/04/05 00:26:02;;;;;;;4.75;2.72;;;;;;;6.25;100.00;100331.53;1039991;28;20315;-79
2022/04/05 00:26:34;;;;;;;6.07;2.95;;;;;;;6.19;100.00;100332.34;1043113;28;20740;-78
2022/04/05 00:27:06;;;;;;;4.13;2.90;;;;;;;6.17;100.00;100323.78;1043596;28;20303;-78
2022/04/05 00:27:38;;;;;;;3.22;2.92;;;;;;;6.25;100.00;100331.53;1039447;28;20848;-78
2022/04/05 00:28:09;;;;;;;4.97;2.92;;;;;;;6.23;100.00;100328.28;1039716;28;20812;-78
2022/04/05 00:28:41;;;;;;;4.75;3.22;;;;;;;6.22;100.00;100326.66;1039055;28;20319;-78
2022/04/05 00:29:12;;;;;;;8.50;3.15;;;;;;;6.18;100.00;100336.00;1040148;28;20291;-78
2022/04/05 00:29:44;;;;;;;6.13;3.10;;;;;;;6.19;100.00;100332.34;1043834;28;20307;-78
2022/04/05 00:30:16;;;;;;;5.88;3.28;;;;;;;6.20;100.00;100334.78;1043532;28;20307;-79
2022/04/05 00:30:47;;;;;;;6.78;2.92;;;;;;;6.24;100.00;100324.63;1043504;28;20295;-78
2022/04/05 00:31:19;;;;;;;8.55;2.85;;;;;;;6.18;100.00;100325.44;1044187;28;20306;-77
2022/04/05 00:31:51;;;;;;;7.18;3.22;;;;;;;6.15;100.00;100331.13;1043584;28;20350;-78
2022/04/05 00:32:23;;;;;;;6.80;3.22;;;;;;;6.15;100.00;100334.56;1047763;28;20337;-78
2022/04/05 00:32:54;;;;;;;4.10;3.10;;;;;;;6.12;100.00;100323.59;1047787;28;20341;-78
2022/04/05 00:33:26;;;;;;;3.42;2.72;;;;;;;6.23;100.00;100322.19;1047740;28;20294;-78
2022/04/05 00:33:57;;;;;;;8.07;3.40;;;;;;;6.25;100.00;100330.72;1047373;28;20938;-78
2022/04/05 00:34:29;;;;;;;4.38;2.95;;;;;;;6.20;100.00;100324.22;1043901;28;20301;-78
2022/04/05 00:35:00;;;;;;;4.43;2.58;;;;;;;6.23;100.00;100324.81;1040022;28;20292;-78
2022/04/05 00:35:32;;;;;;;3.25;2.75;;;;;;;6.19;100.00;100327.06;1039184;28;20804;-78
2022/04/05 00:36:04;;;;;;;5.75;2.90;;;;;;;6.16;100.00;100327.47;1039617;28;20311;-77
2022/04/05 00:36:35;;;;;;;5.93;3.13;;;;;;;6.17;100.00;100319.31;1039801;28;20745;-78
2022/04/05 00:37:07;;;;;;;5.15;3.10;;;;;;;6.17;100.00;100332.53;1039527;28;20798;-79
2022/04/05 00:37:38;;;;;;;7.22;3.03;;;;;;;6.16;100.00;100332.75;1038950;28;20299;-78
2022/04/05 00:38:10;;;;;;;5.47;2.92;;;;;;;6.12;100.00;100326.22;1039677;28;20303;-78
2022/04/05 00:38:41;;;;;;;6.28;3.50;;;;;;;6.16;100.00;100327.47;1039338;28;20789;-78
2022/04/05 00:39:13;;;;;;;6.90;3.08;;;;;;;6.10;100.00;100329.06;1039855;28;20402;-78
2022/04/05 00:39:45;;;;;;;7.18;3.22;;;;;;;6.13;100.00;100327.84;1043726;28;20354;-78
2022/04/05 00:40:16;;;;;;;6.40;3.03;;;;;;;6.16;100.00;100327.47;1043980;28;20291;-78
2022/04/05 00:40:48;;;;;;;7.47;3.03;;;;;;;6.21;100.00;100327.66;1047498;28;20298;-79
2022/04/05 00:41:19;;;;;;;6.60;2.80;;;;;;;6.20;100.00;100324.22;1048008;28;20297;-78
2022/04/05 00:41:51;;;;;;;7.47;3.33;;;;;;;6.18;100.00;100325.44;1047654;28;20621;-78
2022/04/05 00:42:23;;;;;;;4.05;2.65;;;;;;;6.13;100.00;100325.22;1047123;28;20309;-78
2022/04/05 00:42:54;;;;;;;6.97;3.40;;;;;;;6.13;100.00;100327.84;1039570;28;20789;-78
2022/04/05 00:43:26;;;;;;;5.13;2.70;;;;;;;6.12;100.00;100326.22;1039943;28;20583;-79
2022/04/05 00:43:57;;;;;;;4.43;3.13;;;;;;;6.22;100.00;100326.66;1043492;28;20314;-78
2022/04/05 00:44:29;;;;;;;3.55;3.15;;;;;;;6.17;100.00;100323.78;1043799;28;20291;-78
2022/04/05 00:45:00;;;;;;;4.07;3.00;;;;;;;6.19;100.00;100327.88;1043444;28;20803;-78
2022/04/05 00:45:33;;;;;;;6.35;2.90;;;;;;;6.16;100.00;100328.28;1039755;28;20296;-78
2022/04/05 00:46:05;;;;;;;6.95;2.83;;;;;;;6.20;100.00;100323.41;1036000;28;20312;-78
2022/04/05 00:46:36;;;;;;;9.05;2.95;;;;;;;6.13;100.00;100322.56;1039485;28;20310;-78
2022/04/05 00:47:19;;;;;;;4.32;3.50;;;;;;;6.20;100.00;100326.03;1039502;28;20318;-78
2022/04/05 00:47:51;;;;;;;3.10;2.60;;;;;;;6.14;100.00;100324.19;1037604;28;20810;-78
2022/04/05 00:48:31;;;;;;;5.45;2.80;;;;;;;6.15;100.00;100329.28;1039621;28;20299;-78
2022/04/05 00:49:03;;;;;;;4.05;2.70;;;;;;;6.20;100.00;100323.41;1035269;28;20351;-78
2022/04/05 00:49:34;;;;;;;2.88;2.67;;;;;;;6.16;100.00;100327.47;1037175;28;20297;-78
2022/04/05 00:50:06;;;;;;;6.38;3.17;;;;;;;6.15;100.00;100326.66;1035493;28;20292;-78
2022/04/05 00:50:38;;;;;;;5.05;3.17;;;;;;;6.16;100.00;100330.09;1031946;28;20297;-78
2022/04/05 00:51:10;;;;;;;3.45;2.80;;;;;;;6.19;100.00;100327.06;1035414;28;20359;-78
2022/04/05 00:51:41;;;;;;;3.00;2.72;;;;;;;6.16;100.00;100322.16;1035872;28;20296;-78
2022/04/05 00:52:14;;;;;;;5.82;2.65;;;;;;;6.17;100.00;100329.09;1033360;28;20395;-78
2022/04/05 00:52:46;;;;;;;9.90;3.05;;;;;;;6.19;100.00;100327.06;1036131;28;20664;-78
2022/04/05 00:53:18;;;;;;;2.95;2.75;;;;;;;6.12;100.00;100326.22;1035382;28;20829;-78
2022/04/05 00:53:52;;;;;;;5.50;2.75;;;;;;;6.10;100.00;100325.63;1036414;28;20845;-78
2022/04/05 00:54:25;;;;;;;3.80;2.72;;;;;;;6.09;100.00;100332.75;1032800;28;20297;-78
2022/04/05 00:54:58;;;;;;;4.22;2.40;;;;;;;6.17;100.00;100329.09;1036108;28;20778;-78
2022/04/05 00:55:31;;;;;;;6.32;2.55;;;;;;;6.17;100.00;100334.38;1035397;28;20304;-78
2022/04/05 00:56:05;;;;;;;5.70;2.15;;;;;;;6.12;100.00;100332.34;1034885;28;20301;-78
2022/04/05 00:56:36;;;;;;;5.82;2.65;;;;;;;6.12;100.00;100328.88;1039725;28;20700;-78
2022/04/05 00:57:11;;;;;;;4.50;2.78;;;;;;;6.15;100.00;100339.88;1035189;28;20312;-78
2022/04/05 00:57:44;;;;;;;2.85;2.35;;;;;;;6.15;100.00;100334.56;1036510;28;20320;-78
2022/04/05 00:58:15;;;;;;;2.65;2.10;;;;;;;6.11;100.00;100336.00;1035465;28;20654;-78
2022/04/05 00:58:49;;;;;;;3.92;2.97;;;;;;;6.12;100.00;100344.75;1036503;28;20289;-79
2022/04/05 00:59:21;;;;;;;4.78;2.28;;;;;;;6.06;100.00;100334.97;1040310;28;20303;-78
2022/04/05 00:59:55;;;;;;;5.05;2.33;;;;;;;6.03;100.00;100343.31;1040237;28;20331;-78
2022/04/05 01:00:27;;;;;;;5.13;2.10;;;;;;;6.06;100.00;100335.78;1039548;28;20299;-78
2022/04/05 01:00:58;;;;;;;3.25;2.45;;;;;;;6.03;100.00;100338.00;1035618;28;20292;-78
2022/04/05 01:01:31;;;;;;;5.72;2.70;;;;;;;6.04;100.00;100334.34;1031989;28;20312;-78
2022/04/05 01:02:03;;;;;;;3.20;2.42;;;;;;;6.07;100.00;100341.88;1036474;28;20403;-78
2022/04/05 01:02:39;;;;;;;3.20;2.53;;;;;;;6.05;100.00;100343.91;1039429;28;20300;-78
2022/04/05 01:03:10;;;;;;;5.35;2.10;;;;;;;6.07;100.00;100340.06;1039604;28;20617;-78
2022/04/05 01:03:48;;;;;;;6.78;2.80;;;;;;;6.00;100.00;100344.47;1035292;28;20305;-78
2022/04/05 01:04:21;;;;;;;4.18;2.65;;;;;;;6.05;100.00;100336.78;1036906;28;20372;-78
2022/04/05 01:04:52;;;;;;;5.85;2.75;;;;;;;6.05;100.00;100333.34;1037887;28;20375;-78
2022/04/05 01:05:26;;;;;;;3.58;2.33;;;;;;;6.11;100.00;100338.63;1032610;28;20305;-78
2022/04/05 01:05:58;;;;;;;5.38;2.15;;;;;;;6.08;100.00;100340.88;1037161;28;20662;-78
2022/04/05 01:06:33;;;;;;;2.83;2.22;;;;;;;6.08;100.00;100332.94;1032276;28;20297;-78
2022/04/05 01:07:09;;;;;;;3.75;2.15;;;;;;;6.05;100.00;100339.44;1032489;28;20301;-79
2022/04/05 01:07:42;;;;;;;3.10;2.30;;;;;;;6.07;100.00;100334.75;1027298;28;20795;-78
2022/04/05 01:08:16;;;;;;;5.63;3.13;;;;;;;6.05;100.00;100339.44;1030555;28;20803;-78
2022/04/05 01:08:47;;;;;;;3.10;2.28;;;;;;;6.12;100.00;100340.25;1028972;28;20304;-78
2022/04/05 01:09:20;;;;;;;2.65;2.28;;;;;;;6.09;100.00;100342.50;1029315;28;20388;-78
2022/04/05 01:09:55;;;;;;;4.90;2.47;;;;;;;6.10;100.00;100334.38;1030981;28;20347;-78
2022/04/05 01:10:28;;;;;;;5.25;2.33;;;;;;;6.07;100.00;100345.34;1028478;28;20290;-78
2022/04/05 01:11:00;;;;;;;3.53;1.85;;;;;;;6.04;100.00;100343.09;1031382;28;20735;-78
2022/04/05 01:11:32;;;;;;;6.82;2.03;;;;;;;6.04;100.00;100339.63;1032653;28;20309;-79
2022/04/05 01:12:08;;;;;;;3.10;2.10;;;;;;;6.06;100.00;100346.34;1036682;28;20301;-78
2022/04/05 01:12:41;;;;;;;8.95;2.30;;;;;;;6.05;100.00;100347.38;1039607;28;20307;-78
2022/04/05 01:13:13;;;;;;;2.45;1.95;;;;;;;6.03;100.00;100341.47;1043008;28;20310;-78
2022/04/05 01:13:44;;;;;;;5.38;1.98;;;;;;;6.02;100.00;100341.63;1047712;28;20673;-78
2022/04/05 01:14:16;;;;;;;5.90;2.42;;;;;;;6.00;100.00;100343.66;1046547;28;20303;-78
2022/04/05 01:14:48;;;;;;;6.28;2.45;;;;;;;6.00;100.00;100346.31;1039560;28;20296;-78
2022/04/05 01:15:20;;;;;;;4.45;2.30;;;;;;;6.00;100.00;100343.66;1028916;28;20819;-79
2022/04/05 01:15:52;;;;;;;6.13;3.13;;;;;;;6.01;100.00;100345.28;1031943;28;20304;-78
2022/04/05 01:16:23;;;;;;;4.97;2.78;;;;;;;6.00;100.00;100343.66;1032211;28;20293;-79
2022/04/05 01:16:55;;;;;;;2.90;2.28;;;;;;;6.03;100.00;100348.59;1040113;28;20300;-79
2022/04/05 01:17:27;;;;;;;7.22;2.88;;;;;;;6.02;100.00;100347.75;1043313;28;20337;-79
2022/04/05 01:18:00;;;;;;;4.15;2.58;;;;;;;6.01;100.00;100353.22;1043649;28;20291;-79
2022/04/05 01:18:33;;;;;;;5.95;2.78;;;;;;;5.99;100.00;100347.31;1043864;28;20648;-78
2022/04/05 01:19:06;;;;;;;3.83;2.38;;;;;;;6.00;100.00;100349.78;1039127;28;20308;-78
2022/04/05 01:19:38;;;;;;;3.58;2.50;;;;;;;5.99;100.00;100349.97;1040548;28;20306;-78
2022/04/05 01:20:10;;;;;;;2.45;2.00;;;;;;;5.99;100.00;100353.44;1039440;28;20366;-78
2022/04/05 01:20:43;;;;;;;6.65;2.55;;;;;;;6.01;100.00;100347.94;1039590;28;20292;-78
2022/04/05 01:21:14;;;;;;;4.95;2.22;;;;;;;5.99;100.00;100342.84;1035818;28;20304;-78
2022/04/05 01:21:46;;;;;;;2.97;2.08;;;;;;;6.00;100.00;100348.94;1035450;28;20305;-78
2022/04/05 01:22:17;;;;;;;4.28;3.28;;;;;;;5.99;100.00;100344.69;1040230;28;20761;-78
2022/04/05 01:22:51;;;;;;;4.88;2.00;;;;;;;6.08;100.00;100346.16;1044083;28;20291;-78
2022/04/05 01:23:25;;;;;;;3.65;2.60;;;;;;;6.02;100.00;100346.94;1044297;28;20811;-78
2022/04/05 01:24:10;;;;;;;2.67;2.03;;;;;;;5.99;100.00;100347.31;1043436;28;20820;-78
2022/04/05 01:24:43;;;;;;;4.18;2.30;;;;;;;6.00;100.00;100347.13;1039451;28;20299;-78
2022/04/05 01:25:18;;;;;;;2.60;2.00;;;;;;;6.00;100.00;100346.31;1042286;28;20299;-78
2022/04/05 01:25:51;;;;;;;6.72;2.03;;;;;;;5.99;100.00;100348.13;1042356;28;20299;-78
2022/04/05 01:26:22;;;;;;;6.25;2.20;;;;;;;5.99;100.00;100347.31;1040875;28;20288;-78
2022/04/05 01:26:56;;;;;;;4.60;1.95;;;;;;;5.97;100.00;100346.72;1043408;28;20299;-78
2022/04/05 01:27:28;;;;;;;3.65;2.03;;;;;;;5.97;100.00;100344.06;1044502;28;20291;-78
2022/04/05 01:27:59;;;;;;;3.83;2.20;;;;;;;5.97;100.00;100352.00;1044341;28;20318;-79
2022/04/05 01:28:31;;;;;;;3.35;2.45;;;;;;;5.99;100.00;100344.69;1047132;28;20322;-78
2022/04/05 01:29:03;;;;;;;5.60;2.63;;;;;;;5.98;100.00;100343.06;1047653;28;20302;-79
2022/04/05 01:29:35;;;;;;;2.90;2.15;;;;;;;5.98;100.00;100343.06;1039852;28;20874;-79
2022/04/05 01:30:08;;;;;;;3.47;2.15;;;;;;;5.98;100.00;100337.75;1039478;28;20774;-79
2022/04/05 01:30:39;;;;;;;3.88;2.20;;;;;;;5.95;100.00;100338.16;1039479;28;20875;-79
2022/04/05 01:31:11;;;;;;;2.42;2.20;;;;;;;5.96;100.00;100331.88;1040329;28;20730;-78
2022/04/05 01:31:51;;;;;;;3.75;2.58;;;;;;;5.97;100.00;100338.78;1048095;28;20783;-78
2022/04/05 01:32:23;;;;;;;9.48;2.88;;;;;;;5.95;100.00;100335.53;1047478;28;20303;-79
2022/04/05 01:32:59;;;;;;;2.10;1.88;;;;;;;5.96;100.00;100334.50;1043672;28;20041;-79
2022/04/05 01:33:30;;;;;;;9.35;2.35;;;;;;;5.95;100.00;100328.41;1039260;28;20391;-79
2022/04/05 01:34:02;;;;;;;5.50;1.88;;;;;;;5.98;100.00;100330.66;1039306;28;20642;-79
2022/04/05 01:34:36;;;;;;;2.97;1.95;;;;;;;5.97;100.00;100334.31;1036831;28;20351;-79
2022/04/05 01:35:08;;;;;;;3.10;2.08;;;;;;;5.97;100.00;100333.50;1044812;28;20333;-78
2022/04/05 01:35:40;;;;;;;4.40;2.47;;;;;;;5.95;100.00;100324.94;1047887;28;20701;-79
2022/04/05 01:36:22;;;;;;;8.60;2.42;;;;;;;5.97;100.00;100325.56;1048709;28;20310;-79
2022/04/05 01:36:56;;;;;;;4.28;2.00;;;;;;;5.97;100.00;100328.22;1047822;28;20291;-79
2022/04/05 01:37:28;;;;;;;2.70;2.10;;;;;;;5.98;100.00;100327.19;1043277;28;20310;-78
2022/04/05 01:38:01;;;;;;;6.75;2.35;;;;;;;5.94;100.00;100329.41;1043355;28;20645;-78
2022/04/05 01:38:34;;;;;;;8.27;2.22;;;;;;;5.94;100.00;100324.13;1040166;28;20449;-78
2022/04/05 01:39:06;;;;;;;4.78;1.92;;;;;;;5.95;100.00;100324.94;1041625;28;20295;-78
2022/04/05 01:39:39;;;;;;;3.83;2.13;;;;;;;5.94;100.00;100324.13;1035322;28;20293;-78
2022/04/05 01:40:11;;;;;;;6.20;2.10;;;;;;;5.93;100.00;100322.50;1035875;28;20315;-78
2022/04/05 01:40:43;;;;;;;2.20;1.77;;;;;;;5.97;100.00;100322.91;1036060;28;20305;-78
2022/04/05 01:41:14;;;;;;;5.63;1.90;;;;;;;5.97;100.00;100317.63;1039562;28;20709;-78
2022/04/05 01:41:46;;;;;;;3.17;2.15;;;;;;;5.96;100.00;100321.28;1043189;28;20311;-79
2022/04/05 01:42:18;;;;;;;4.53;2.08;;;;;;;5.96;100.00;100318.66;1040016;28;20296;-78
2022/04/05 01:42:49;;;;;;;2.70;2.03;;;;;;;5.96;100.00;100318.66;1043582;28;20374;-79
2022/04/05 01:43:21;;;;;;;2.45;2.25;;;;;;;5.96;100.00;100321.28;1043174;28;20310;-78
2022/04/05 01:43:53;;;;;;;4.07;2.25;;;;;;;5.96;100.00;100314.19;1044166;28;20302;-78
2022/04/05 01:44:26;;;;;;;3.53;2.13;;;;;;;5.96;100.00;100311.53;1047779;28;20656;-78
2022/04/05 01:44:58;;;;;;;4.35;1.88;;;;;;;5.99;100.00;100310.31;1043351;28;20295;-78
2022/04/05 01:45:30;;;;;;;5.70;2.47;;;;;;;5.97;100.00;100313.16;1043499;28;20314;-79
2022/04/05 01:46:02;;;;;;;3.55;2.25;;;;;;;5.99;100.00;100310.31;1039374;28;20673;-79
2022/04/05 01:46:34;;;;;;;6.97;2.42;;;;;;;6.02;100.00;100300.16;1040026;28;20402;-79
2022/04/05 01:47:16;;;;;;;3.67;2.35;;;;;;;6.01;100.00;100303.00;1042695;28;20303;-78
2022/04/05 01:47:47;;;;;;;4.32;1.92;;;;;;;6.00;100.00;100304.00;1041432;28;20676;-78
2022/04/05 01:48:19;;;;;;;4.88;2.38;;;;;;;5.98;100.00;100304.22;1040270;28;20322;-78
2022/04/05 01:48:52;;;;;;;4.60;2.13;;;;;;;5.97;100.00;100304.41;1039368;28;20876;-79
2022/04/05 01:49:23;;;;;;;5.35;1.88;;;;;;;5.96;100.00;100300.16;1041704;28;20662;-78
2022/04/05 01:49:55;;;;;;;3.05;1.83;;;;;;;6.00;100.00;100296.91;1047695;28;20299;-75
2022/04/05 01:50:26;;;;;;;3.35;2.67;;;;;;;5.99;100.00;100299.75;1048140;28;20369;-75
2022/04/05 01:50:58;;;;;;;3.70;2.30;;;;;;;5.97;100.00;100291.19;1048226;28;20286;-75
2022/04/05 01:51:29;;;;;;;3.55;2.28;;;;;;;5.99;100.00;100294.47;1043450;28;20732;-76
2022/04/05 01:52:04;;;;;;;4.25;2.38;;;;;;;5.97;100.00;100297.31;1043389;28;20302;-78
2022/04/05 01:52:35;;;;;;;4.30;2.05;;;;;;;5.98;100.00;100308.69;1046227;28;20303;-74
2022/04/05 01:53:07;;;;;;;4.65;2.42;;;;;;;5.97;100.00;100304.41;1044443;28;20302;-77
2022/04/05 01:53:38;;;;;;;3.20;2.13;;;;;;;5.94;100.00;100303.00;1047643;28;20309;-75
2022/04/05 01:54:12;;;;;;;3.63;2.17;;;;;;;5.95;100.00;100299.31;1041201;28;20307;-77
2022/04/05 01:54:45;;;;;;;3.92;2.17;;;;;;;5.94;100.00;100297.69;1036358;28;20809;-77
2022/04/05 01:55:16;;;;;;;4.35;2.53;;;;;;;5.95;100.00;100298.50;1041934;28;20295;-76
2022/04/05 01:55:48;;;;;;;2.97;2.45;;;;;;;5.94;100.00;100308.28;1040253;28;20303;-76
2022/04/05 01:56:21;;;;;;;4.32;2.75;;;;;;;5.92;100.00;100293.63;1040269;28;20797;-75
2022/04/05 01:56:52;;;;;;;5.38;2.50;;;;;;;5.95;100.00;100303.81;1039703;28;20292;-76
2022/04/05 01:57:24;;;;;;;6.10;2.63;;;;;;;5.96;100.00;100305.44;1039435;28;20300;-76
2022/04/05 01:57:56;;;;;;;4.88;2.20;;;;;;;5.94;100.00;100303.00;1042584;28;20335;-76
2022/04/05 01:58:27;;;;;;;5.63;2.42;;;;;;;5.94;100.00;100302.19;1047883;28;20301;-76
2022/04/05 01:59:00;;;;;;;6.10;2.47;;;;;;;5.98;100.00;100303.41;1047689;28;20306;-76
2022/04/05 01:59:33;;;;;;;4.55;2.33;;;;;;;5.98;100.00;100308.69;1047185;28;20298;-76
2022/04/05 02:00:14;;;;;;;3.60;2.40;;;;;;;5.99;100.00;100305.03;1040746;28;20296;-77
2022/04/05 02:00:49;;;;;;;4.25;2.33;;;;;;;5.99;100.00;100305.84;1043551;28;20283;-77
2022/04/05 02:01:21;;;;;;;9.82;2.28;;;;;;;5.97;100.00;100312.34;1039749;28;20052;-77
2022/04/05 02:01:52;;;;;;;4.10;2.35;;;;;;;5.95;100.00;100314.38;1038835;28;20303;-77
2022/04/05 02:02:24;;;;;;;3.20;2.45;;;;;;;5.96;100.00;100318.66;1037111;28;20431;-77
2022/04/05 02:02:56;;;;;;;6.70;2.58;;;;;;;5.95;100.00;100319.66;1036056;28;20292;-76
2022/04/05 02:03:27;;;;;;;5.18;2.40;;;;;;;5.95;100.00;100311.72;1035033;28;20814;-77
2022/04/05 02:04:01;;;;;;;6.05;2.60;;;;;;;5.97;100.00;100312.34;1035913;28;20315;-76
2022/04/05 02:04:36;;;;;;;5.70;2.38;;;;;;;5.98;100.00;100313.97;1039970;28;20312;-76
2022/04/05 02:05:08;;;;;;;2.22;2.10;;;;;;;5.95;100.00;100315.19;1040724;28;20303;-76
2022/04/05 02:05:40;;;;;;;4.20;2.38;;;;;;;5.95;100.00;100317.84;1035393;28;20301;-77
2022/04/05 02:06:11;;;;;;;3.63;2.35;;;;;;;5.95;100.00;100306.44;1039071;28;20307;-76
2022/04/05 02:06:44;;;;;;;6.47;2.78;;;;;;;5.94;100.00;100304.81;1036042;28;20300;-76
2022/04/05 02:07:17;;;;;;;4.05;2.20;;;;;;;5.96;100.00;100316.00;1036706;28;20363;-76
2022/04/05 02:07:49;;;;;;;2.85;2.42;;;;;;;5.97;100.00;100307.88;1037782;28;20303;-75
2022/04/05 02:08:21;;;;;;;5.43;2.45;;;;;;;5.95;100.00;100315.19;1035456;28;20888;-76
2022/04/05 02:08:53;;;;;;;4.95;2.42;;;;;;;5.96;100.00;100310.72;1036187;28;20383;-77
2022/04/05 02:09:24;;;;;;;6.05;2.85;;;;;;;5.98;100.00;100308.69;1040163;28;20292;-76
2022/04/05 02:09:56;;;;;;;6.47;2.35;;;;;;;5.97;100.00;100317.63;1039032;28;20300;-77
2022/04/05 02:10:27;;;;;;;3.83;2.08;;;;;;;5.99;100.00;100315.59;1039870;28;20434;-76
2022/04/05 02:11:00;;;;;;;5.40;2.53;;;;;;;5.96;100.00;100316.81;1043807;28;20705;-76
2022/04/05 02:11:34;;;;;;;3.72;2.78;;;;;;;5.96;100.00;100321.28;1039495;28;20327;-76
2022/04/05 02:12:17;;;;;;;2.58;2.03;;;;;;;5.94;100.00;100323.31;1033947;28;20309;-76
2022/04/05 02:13:21;;;;;;;5.03;1.92;;;;;;;5.96;100.00;100321.28;1031335;28;20393;-76
2022/04/05 02:13:58;;;;;;;8.88;2.10;;;;;;;5.92;100.00;100322.72;1041382;28;20304;-76
2022/04/05 02:14:30;;;;;;;3.85;2.25;;;;;;;5.89;100.00;100327.38;1040757;28;20670;-77
2022/04/05 02:15:05;;;;;;;5.03;2.15;;;;;;;5.95;100.00;100330.22;1039468;28;20744;-77
2022/04/05 02:15:43;;;;;;;5.75;2.10;;;;;;;5.91;100.00;100326.38;1038178;28;21070;-77
2022/04/05 02:16:15;;;;;;;6.35;2.45;;;;;;;5.92;100.00;100328.81;1035465;28;20687;-77
2022/04/05 02:16:47;;;;;;;2.55;2.30;;;;;;;5.94;100.00;100336.53;1031043;28;20307;-76
2022/04/05 02:17:20;;;;;;;2.50;2.25;;;;;;;5.92;100.00;100335.94;1033277;28;20386;-76
2022/04/05 02:17:53;;;;;;;4.47;2.40;;;;;;;5.91;100.00;100331.66;1039658;28;21568;-75
2022/04/05 02:18:29;;;;;;;3.75;2.20;;;;;;;5.92;100.00;100336.75;1040581;28;20667;-76
2022/04/05 02:19:01;;;;;;;5.30;2.47;;;;;;;5.92;100.00;100342.03;1035432;28;20307;-77
2022/04/05 02:19:36;;;;;;;2.80;2.00;;;;;;;5.91;100.00;100336.94;1032345;28;20312;-77
2022/04/05 02:20:08;;;;;;;2.65;2.45;;;;;;;5.89;100.00;100337.09;1038644;28;20343;-75
2022/04/05 02:20:42;;;;;;;4.35;1.85;;;;;;;5.88;100.00;100336.28;1034297;28;20557;-77
2022/04/05 02:21:14;;;;;;;3.55;2.17;;;;;;;5.89;100.00;100335.31;1028461;28;20310;-76
2022/04/05 02:21:46;;;;;;;4.25;1.80;;;;;;;5.89;100.00;100337.94;1035858;28;20305;-76
2022/04/05 02:22:17;;;;;;;3.70;2.28;;;;;;;5.91;100.00;100331.66;1039865;28;20323;-76
2022/04/05 02:22:51;;;;;;;3.10;1.63;;;;;;;5.90;100.00;100328.19;1035615;28;20128;-76
2022/04/05 02:23:30;;;;;;;3.83;2.42;;;;;;;5.92;100.00;100335.94;1038026;28;20297;-75
2022/04/05 02:24:10;;;;;;;5.18;2.50;;;;;;;5.93;100.00;100334.91;1035075;28;20312;-77
2022/04/05 02:24:42;;;;;;;8.32;2.60;;;;;;;5.96;100.00;100332.69;1034247;28;20041;-76
2022/04/05 02:25:15;;;;;;;2.90;1.95;;;;;;;5.98;100.00;100335.13;1032810;28;20301;-75
2022/04/05 02:25:47;;;;;;;4.35;2.70;;;;;;;5.96;100.00;100334.50;1031806;28;20301;-77
2022/04/05 02:26:22;;;;;;;4.07;2.35;;;;;;;5.96;100.00;100335.31;1027955;28;20310;-76
2022/04/05 02:26:56;;;;;;;6.15;2.70;;;;;;;5.97;100.00;100330.84;1033787;28;20360;-77
2022/04/05 02:27:28;;;;;;;6.43;2.67;;;;;;;5.95;100.00;100332.88;1036695;28;20749;-75
2022/04/05 02:28:02;;;;;;;4.03;2.65;;;;;;;5.94;100.00;100333.91;1035910;28;20297;-76
2022/04/05 02:28:41;;;;;;;4.22;2.83;;;;;;;5.96;100.00;100334.50;1035119;28;20324;-76
2022/04/05 02:29:17;;;;;;;4.15;2.83;;;;;;;5.96;100.00;100337.16;1031976;28;20097;-76
2022/04/05 02:29:52;;;;;;;5.07;2.75;;;;;;;5.95;100.00;100333.69;1033741;28;20301;-77
2022/04/05 02:30:26;;;;;;;6.03;3.05;;;;;;;5.94;100.00;100333.91;1035880;28;20300;-76
2022/04/05 02:30:59;;;;;;;3.05;2.15;;;;;;;5.94;100.00;100329.41;1035397;28;20315;-77
2022/04/05 02:31:37;;;;;;;3.03;2.75;;;;;;;5.95;100.00;100330.22;1033612;28;20399;-76
2022/04/05 02:32:12;;;;;;;6.32;2.40;;;;;;;5.92;100.00;100331.44;1037173;28;20293;-75